Home > Products > Valid Products > TAF

000
FTUS43 KGLD 042320
TAFMCK
TAF
KMCK 042320Z 0500/0524 33014KT P6SM FEW050
     FM050400 VRB04KT P6SM SKC
     FM050800 18005KT P6SM BKN050
     FM051600 22007KT P6SM SKC=



000
FTUS43 KGLD 042320
TAFGLD
TAF
KGLD 042320Z 0500/0524 36010KT P6SM FEW050
     FM050300 23005KT P6SM FEW060
     FM051900 25006KT P6SM SKC=



000
FTUS43 KGLD 042320
TAFMCK
TAF
KMCK 042320Z 0500/0524 33014KT P6SM FEW050
     FM050400 VRB04KT P6SM SKC
     FM050800 18005KT P6SM BKN050
     FM051600 22007KT P6SM SKC=



000
FTUS43 KGLD 042320
TAFMCK
TAF
KMCK 042320Z 0500/0524 33014KT P6SM FEW050
     FM050400 VRB04KT P6SM SKC
     FM050800 18005KT P6SM BKN050
     FM051600 22007KT P6SM SKC=



000
FTUS43 KGLD 042320
TAFMCK
TAF
KMCK 042320Z 0500/0524 33014KT P6SM FEW050
     FM050400 VRB04KT P6SM SKC
     FM050800 18005KT P6SM BKN050
     FM051600 22007KT P6SM SKC=



000
FTUS43 KGLD 042320
TAFGLD
TAF
KGLD 042320Z 0500/0524 36010KT P6SM FEW050
     FM050300 23005KT P6SM FEW060
     FM051900 25006KT P6SM SKC=



000
FTUS43 KGLD 041740
TAFGLD
TAF
KGLD 041740Z 0418/0518 36010KT P6SM FEW070
     FM050200 31006KT P6SM FEW150
     FM050400 25006KT P6SM FEW250=



000
FTUS43 KGLD 041740
TAFMCK
TAF
KMCK 041740Z 0418/0518 32010KT P6SM SKC
     FM050400 29006KT P6SM FEW200
     FM051400 22007KT P6SM FEW250=



000
FTUS43 KGLD 041740
TAFGLD
TAF
KGLD 041740Z 0418/0518 36010KT P6SM FEW070
     FM050200 31006KT P6SM FEW150
     FM050400 25006KT P6SM FEW250=



000
FTUS43 KGLD 041740
TAFMCK
TAF
KMCK 041740Z 0418/0518 32010KT P6SM SKC
     FM050400 29006KT P6SM FEW200
     FM051400 22007KT P6SM FEW250=



000
FTUS43 KGLD 041740
TAFMCK
TAF
KMCK 041740Z 0418/0518 32010KT P6SM SKC
     FM050400 29006KT P6SM FEW200
     FM051400 22007KT P6SM FEW250=



000
FTUS43 KGLD 041611 AAA
TAFMCK
TAF AMD
KMCK 041611Z 0416/0512 30010KT P6SM FEW070 SCT110
     FM041800 34013KT P6SM SCT110
     FM050000 VRB05KT P6SM SKC=



000
FTUS43 KGLD 041611 AAA
TAFMCK
TAF AMD
KMCK 041611Z 0416/0512 30010KT P6SM FEW070 SCT110
     FM041800 34013KT P6SM SCT110
     FM050000 VRB05KT P6SM SKC=



000
FTUS43 KGLD 041607 AAA
TAFGLD
TAF AMD
KGLD 041607Z 0416/0512 01012KT P6SM SCT045 BKN060
     FM042100 36013G20KT P6SM SCT120
     FM050000 VRB05KT P6SM SKC=



000
FTUS43 KGLD 041125
TAFMCK
TAF
KMCK 041125Z 0412/0512 35005KT 5SM -SN OVC070
      TEMPO 0412/0414 3SM -SN OVC030
     FM041500 34012KT P6SM SCT070 BKN120
     FM041800 34013G20KT P6SM SCT120
     FM050000 VRB05KT P6SM SKC=



000
FTUS43 KGLD 041125
TAFMCK
TAF
KMCK 041125Z 0412/0512 35005KT 5SM -SN OVC070
      TEMPO 0412/0414 3SM -SN OVC030
     FM041500 34012KT P6SM SCT070 BKN120
     FM041800 34013G20KT P6SM SCT120
     FM050000 VRB05KT P6SM SKC=



000
FTUS43 KGLD 041125
TAFGLD
TAF
KGLD 041125Z 0412/0512 02008KT 5SM -SN OVC040
      TEMPO 0412/0416 3SM -SN OVC030
     FM041700 36013KT P6SM SCT040 BKN120
     FM042100 36013G20KT P6SM SCT120
     FM050000 VRB05KT P6SM SKC=



000
FTUS43 KGLD 041125
TAFMCK
TAF
KMCK 041125Z 0412/0512 35005KT 5SM -SN OVC070
      TEMPO 0412/0414 3SM -SN OVC030
     FM041500 34012KT P6SM SCT070 BKN120
     FM041800 34013G20KT P6SM SCT120
     FM050000 VRB05KT P6SM SKC=



000
FTUS43 KGLD 041125
TAFGLD
TAF
KGLD 041125Z 0412/0512 02008KT 5SM -SN OVC040
      TEMPO 0412/0416 3SM -SN OVC030
     FM041700 36013KT P6SM SCT040 BKN120
     FM042100 36013G20KT P6SM SCT120
     FM050000 VRB05KT P6SM SKC=



000
FTUS43 KGLD 041125
TAFMCK
TAF
KMCK 041125Z 0412/0512 35005KT 5SM -SN OVC070
      TEMPO 0412/0414 3SM -SN OVC030
     FM041500 34012KT P6SM SCT070 BKN120
     FM041800 34013G20KT P6SM SCT120
     FM050000 VRB05KT P6SM SKC=



000
FTUS43 KGLD 040520
TAFGLD
TAF
KGLD 040520Z 0406/0506 05008KT P6SM OVC040
     FM040700 01008KT 4SM -SN SCT015 OVC030
      TEMPO 0407/0411 1SM -SN BR OVC010
     FM041400 36013KT P6SM SCT020 BKN035
     FM041800 36014G21KT P6SM SCT030 BKN120
     FM050000 VRB06KT P6SM SKC=



000
FTUS43 KGLD 040520
TAFMCK
TAF
KMCK 040520Z 0406/0506 01012KT 3SM -SN BR OVC020
      TEMPO 0406/0409 1/2SM SN FG OVC009
     FM041200 33012KT P6SM BKN030
     FM041800 34016G24KT P6SM SCT040 BKN150
     FM042300 36008KT P6SM SKC
     FM050200 VRB04KT P6SM SKC=



000
FTUS43 KGLD 040520
TAFMCK
TAF
KMCK 040520Z 0406/0506 01012KT 3SM -SN BR OVC020
      TEMPO 0406/0409 1/2SM SN FG OVC009
     FM041200 33012KT P6SM BKN030
     FM041800 34016G24KT P6SM SCT040 BKN150
     FM042300 36008KT P6SM SKC
     FM050200 VRB04KT P6SM SKC=



000
FTUS43 KGLD 040520
TAFMCK
TAF
KMCK 040520Z 0406/0506 01012KT 3SM -SN BR OVC020
      TEMPO 0406/0409 1/2SM SN FG OVC009
     FM041200 33012KT P6SM BKN030
     FM041800 34016G24KT P6SM SCT040 BKN150
     FM042300 36008KT P6SM SKC
     FM050200 VRB04KT P6SM SKC=



000
FTUS43 KGLD 040502 AAA
TAFMCK
TAF AMD
KMCK 040502Z 0405/0424 01012KT 4SM -SN BR OVC020
      TEMPO 0405/0409 1/2SM SN FG OVC009
     FM041200 33012KT P6SM BKN030
     FM041800 34016G24KT P6SM SCT040 BKN150=



000
FTUS43 KGLD 040502 AAA
TAFMCK
TAF AMD
KMCK 040502Z 0405/0424 01012KT 4SM -SN BR OVC020
      TEMPO 0405/0409 1/2SM SN FG OVC009
     FM041200 33012KT P6SM BKN030
     FM041800 34016G24KT P6SM SCT040 BKN150=



000
FTUS43 KGLD 032337
TAFMCK
TAF
KMCK 032337Z 0400/0424 01012KT P6SM BKN045
     FM040400 01012KT 4SM -SN BR OVC025
      TEMPO 0406/0410 1SM -SN BR OVC015
     FM041200 33008KT P6SM BKN025
     FM041500 32014KT P6SM BKN035
     FM041800 34014G21KT P6SM SCT040 BKN150=



000
FTUS43 KGLD 032337
TAFMCK
TAF
KMCK 032337Z 0400/0424 01012KT P6SM BKN045
     FM040400 01012KT 4SM -SN BR OVC025
      TEMPO 0406/0410 1SM -SN BR OVC015
     FM041200 33008KT P6SM BKN025
     FM041500 32014KT P6SM BKN035
     FM041800 34014G21KT P6SM SCT040 BKN150=



000
FTUS43 KGLD 032337
TAFMCK
TAF
KMCK 032337Z 0400/0424 01012KT P6SM BKN045
     FM040400 01012KT 4SM -SN BR OVC025
      TEMPO 0406/0410 1SM -SN BR OVC015
     FM041200 33008KT P6SM BKN025
     FM041500 32014KT P6SM BKN035
     FM041800 34014G21KT P6SM SCT040 BKN150=



000
FTUS43 KGLD 032337
TAFGLD
TAF
KGLD 032337Z 0400/0424 04009KT P6SM BKN035
     FM040500 03011KT 3SM -SN BR OVC015
      TEMPO 0407/0411 1SM -SN BR SCT007 OVC010
     FM041400 36015G22KT P6SM SCT020 BKN035
     FM041800 36012KT P6SM SCT030 BKN120=



000
FTUS43 KGLD 032337
TAFMCK
TAF
KMCK 032337Z 0400/0424 01012KT P6SM BKN045
     FM040400 01012KT 4SM -SN BR OVC025
      TEMPO 0406/0410 1SM -SN BR OVC015
     FM041200 33008KT P6SM BKN025
     FM041500 32014KT P6SM BKN035
     FM041800 34014G21KT P6SM SCT040 BKN150=



000
FTUS43 KGLD 032337
TAFGLD
TAF
KGLD 032337Z 0400/0424 04009KT P6SM BKN035
     FM040500 03011KT 3SM -SN BR OVC015
      TEMPO 0407/0411 1SM -SN BR SCT007 OVC010
     FM041400 36015G22KT P6SM SCT020 BKN035
     FM041800 36012KT P6SM SCT030 BKN120=



000
FTUS43 KGLD 031736
TAFMCK
TAF
KMCK 031736Z 0318/0418 36016G26KT P6SM BKN050
     FM040400 02011KT 5SM -SN BR OVC025
      TEMPO 0406/0409 2SM -SN BR OVC015
     FM041100 33008KT P6SM BKN025
     FM041300 32014KT P6SM SCT035=



000
FTUS43 KGLD 031736
TAFGLD
TAF
KGLD 031736Z 0318/0418 36021G29KT P6SM BKN015
     FM032000 02012G20KT P6SM BKN035
     FM040000 06009KT P6SM SCT040 OVC100
     FM040500 05011KT 4SM -SN BR OVC015
      TEMPO 0407/0411 1 1/2SM -SN BR SCT007 OVC010
     FM041400 36015KT P6SM SCT025 BKN050=



000
FTUS43 KGLD 031736
TAFMCK
TAF
KMCK 031736Z 0318/0418 36016G26KT P6SM BKN050
     FM040400 02011KT 5SM -SN BR OVC025
      TEMPO 0406/0409 2SM -SN BR OVC015
     FM041100 33008KT P6SM BKN025
     FM041300 32014KT P6SM SCT035=



000
FTUS43 KGLD 031736
TAFMCK
TAF
KMCK 031736Z 0318/0418 36016G26KT P6SM BKN050
     FM040400 02011KT 5SM -SN BR OVC025
      TEMPO 0406/0409 2SM -SN BR OVC015
     FM041100 33008KT P6SM BKN025
     FM041300 32014KT P6SM SCT035=



000
FTUS43 KGLD 031736
TAFGLD
TAF
KGLD 031736Z 0318/0418 36021G29KT P6SM BKN015
     FM032000 02012G20KT P6SM BKN035
     FM040000 06009KT P6SM SCT040 OVC100
     FM040500 05011KT 4SM -SN BR OVC015
      TEMPO 0407/0411 1 1/2SM -SN BR SCT007 OVC010
     FM041400 36015KT P6SM SCT025 BKN050=



000
FTUS43 KGLD 031736
TAFMCK
TAF
KMCK 031736Z 0318/0418 36016G26KT P6SM BKN050
     FM040400 02011KT 5SM -SN BR OVC025
      TEMPO 0406/0409 2SM -SN BR OVC015
     FM041100 33008KT P6SM BKN025
     FM041300 32014KT P6SM SCT035=



000
FTUS43 KGLD 031644 AAB
TAFMCK
TAF AMD
KMCK 031644Z 0317/0412 35017G27KT P6SM SCT025 BKN040
     FM032100 01015G25KT P6SM BKN070
     FM040300 02011KT P6SM VCSH OVC035
     FM040600 02008KT 5SM -SN BKN015=



000
FTUS43 KGLD 031644 AAB
TAFMCK
TAF AMD
KMCK 031644Z 0317/0412 35017G27KT P6SM SCT025 BKN040
     FM032100 01015G25KT P6SM BKN070
     FM040300 02011KT P6SM VCSH OVC035
     FM040600 02008KT 5SM -SN BKN015=



000
FTUS43 KGLD 031644 AAB
TAFMCK
TAF AMD
KMCK 031644Z 0317/0412 35017G27KT P6SM SCT025 BKN040
     FM032100 01015G25KT P6SM BKN070
     FM040300 02011KT P6SM VCSH OVC035
     FM040600 02008KT 5SM -SN BKN015=



000
FTUS43 KGLD 031644 AAB
TAFMCK
TAF AMD
KMCK 031644Z 0317/0412 35017G27KT P6SM SCT025 BKN040
     FM032100 01015G25KT P6SM BKN070
     FM040300 02011KT P6SM VCSH OVC035
     FM040600 02008KT 5SM -SN BKN015=



000
FTUS43 KGLD 031500 AAB
TAFGLD
TAF AMD
KGLD 031500Z 0315/0412 36020G30KT P6SM BKN015
     FM032100 03012G20KT P6SM BKN035
     FM040100 06011KT P6SM VCSH BKN030
     FM040600 07009KT 5SM -SN BKN015=



000
FTUS43 KGLD 031405 AAA
TAFMCK
TAF AMD
KMCK 031405Z 0314/0412 31010KT 4SM BR SCT010 OVC020
     FM031500 35020G30KT 6SM BR BKN015
     FM032100 01015G25KT P6SM BKN035
     FM040300 02011KT P6SM VCSH OVC035
     FM040600 02008KT 5SM -SN BKN015=



000
FTUS43 KGLD 031405 AAA
TAFMCK
TAF AMD
KMCK 031405Z 0314/0412 31010KT 4SM BR SCT010 OVC020
     FM031500 35020G30KT 6SM BR BKN015
     FM032100 01015G25KT P6SM BKN035
     FM040300 02011KT P6SM VCSH OVC035
     FM040600 02008KT 5SM -SN BKN015=



000
FTUS43 KGLD 031216 AAA
TAFGLD
TAF AMD
KGLD 031216Z 0312/0412 34012KT 5SM BR BKN003
     FM031500 34020G30KT P6SM BKN005
     FM031800 36015G22KT P6SM BKN015
     FM032100 03012G20KT P6SM BKN035
     FM040100 06011KT P6SM VCSH BKN030
     FM040600 07009KT 5SM -SN BKN015=



000
FTUS43 KGLD 031216 AAA
TAFGLD
TAF AMD
KGLD 031216Z 0312/0412 34012KT 5SM BR BKN003
     FM031500 34020G30KT P6SM BKN005
     FM031800 36015G22KT P6SM BKN015
     FM032100 03012G20KT P6SM BKN035
     FM040100 06011KT P6SM VCSH BKN030
     FM040600 07009KT 5SM -SN BKN015=



000
FTUS43 KGLD 031128
TAFMCK
TAF
KMCK 031128Z 0312/0412 34006KT P6SM BKN018
     FM031400 34020G30KT P6SM BKN008
     FM031800 35020G30KT P6SM BKN015
     FM032100 01015G25KT P6SM BKN035
     FM040300 02011KT P6SM VCSH OVC035
     FM040600 02008KT 5SM -SN BKN015=



000
FTUS43 KGLD 031128
TAFGLD
TAF
KGLD 031128Z 0312/0412 33011KT P6SM BKN120
     FM031400 34020G30KT P6SM BKN005
     FM031800 36015G22KT P6SM BKN015
     FM032100 03012G20KT P6SM BKN035
     FM040100 06011KT P6SM VCSH BKN030
     FM040600 07009KT 5SM -SN BKN015=



000
FTUS43 KGLD 031128
TAFGLD
TAF
KGLD 031128Z 0312/0412 33011KT P6SM BKN120
     FM031400 34020G30KT P6SM BKN005
     FM031800 36015G22KT P6SM BKN015
     FM032100 03012G20KT P6SM BKN035
     FM040100 06011KT P6SM VCSH BKN030
     FM040600 07009KT 5SM -SN BKN015=



000
FTUS43 KGLD 031128
TAFMCK
TAF
KMCK 031128Z 0312/0412 34006KT P6SM BKN018
     FM031400 34020G30KT P6SM BKN008
     FM031800 35020G30KT P6SM BKN015
     FM032100 01015G25KT P6SM BKN035
     FM040300 02011KT P6SM VCSH OVC035
     FM040600 02008KT 5SM -SN BKN015=



000
FTUS43 KGLD 031128
TAFMCK
TAF
KMCK 031128Z 0312/0412 34006KT P6SM BKN018
     FM031400 34020G30KT P6SM BKN008
     FM031800 35020G30KT P6SM BKN015
     FM032100 01015G25KT P6SM BKN035
     FM040300 02011KT P6SM VCSH OVC035
     FM040600 02008KT 5SM -SN BKN015=



000
FTUS43 KGLD 031128
TAFMCK
TAF
KMCK 031128Z 0312/0412 34006KT P6SM BKN018
     FM031400 34020G30KT P6SM BKN008
     FM031800 35020G30KT P6SM BKN015
     FM032100 01015G25KT P6SM BKN035
     FM040300 02011KT P6SM VCSH OVC035
     FM040600 02008KT 5SM -SN BKN015=



000
FTUS43 KGLD 030535
TAFMCK
TAF
KMCK 030535Z 0306/0406 12009KT P6SM OVC015
     FM030900 VRB05KT 6SM BR OVC020
     FM031200 31012KT P6SM BKN035
     FM031500 35024G36KT P6SM OVC020
     FM031900 36017G25KT P6SM BKN035
     FM040000 02012KT P6SM BKN100
     FM040300 36008KT P6SM VCSH OVC035=



000
FTUS43 KGLD 030535
TAFMCK
TAF
KMCK 030535Z 0306/0406 12009KT P6SM OVC015
     FM030900 VRB05KT 6SM BR OVC020
     FM031200 31012KT P6SM BKN035
     FM031500 35024G36KT P6SM OVC020
     FM031900 36017G25KT P6SM BKN035
     FM040000 02012KT P6SM BKN100
     FM040300 36008KT P6SM VCSH OVC035=



000
FTUS43 KGLD 030535
TAFGLD
TAF
KGLD 030535Z 0306/0406 20020G28KT P6SM SCT006 BKN150 WS020/23060KT
     FM030900 27015G24KT P6SM SCT020 BKN200
     FM031200 31018G25KT P6SM SCT030
     FM031400 35020G28KT P6SM OVC015
     FM031900 01015G22KT P6SM BKN035
     FM032300 03009KT P6SM BKN060
     FM040300 06008KT P6SM VCSH OVC025=



000
FTUS43 KGLD 030535
TAFMCK
TAF
KMCK 030535Z 0306/0406 12009KT P6SM OVC015
     FM030900 VRB05KT 6SM BR OVC020
     FM031200 31012KT P6SM BKN035
     FM031500 35024G36KT P6SM OVC020
     FM031900 36017G25KT P6SM BKN035
     FM040000 02012KT P6SM BKN100
     FM040300 36008KT P6SM VCSH OVC035=



000
FTUS43 KGLD 030535
TAFMCK
TAF
KMCK 030535Z 0306/0406 12009KT P6SM OVC015
     FM030900 VRB05KT 6SM BR OVC020
     FM031200 31012KT P6SM BKN035
     FM031500 35024G36KT P6SM OVC020
     FM031900 36017G25KT P6SM BKN035
     FM040000 02012KT P6SM BKN100
     FM040300 36008KT P6SM VCSH OVC035=



000
FTUS43 KGLD 030535
TAFGLD
TAF
KGLD 030535Z 0306/0406 20020G28KT P6SM SCT006 BKN150 WS020/23060KT
     FM030900 27015G24KT P6SM SCT020 BKN200
     FM031200 31018G25KT P6SM SCT030
     FM031400 35020G28KT P6SM OVC015
     FM031900 01015G22KT P6SM BKN035
     FM032300 03009KT P6SM BKN060
     FM040300 06008KT P6SM VCSH OVC025=



000
FTUS43 KGLD 030502 AAB
TAFGLD
TAF AMD
KGLD 030502Z 0305/0324 19020G28KT 6SM BR OVC006 WS020/22055KT
      TEMPO 0305/0308 SCT006 BKN015
     FM030900 26015G24KT P6SM BKN015
     FM031200 31019G26KT P6SM BKN030
     FM031500 36020G28KT P6SM BKN015
     FM031900 01015G22KT P6SM BKN035=



000
FTUS43 KGLD 030502 AAA
TAFMCK
TAF AMD
KMCK 030502Z 0305/0324 12008KT P6SM OVC015
     FM030900 VRB05KT P6SM OVC020
     FM031200 31012KT P6SM BKN035
     FM031500 35024G36KT P6SM OVC020
     FM031900 36017G25KT P6SM BKN035=



000
FTUS43 KGLD 030502 AAA
TAFMCK
TAF AMD
KMCK 030502Z 0305/0324 12008KT P6SM OVC015
     FM030900 VRB05KT P6SM OVC020
     FM031200 31012KT P6SM BKN035
     FM031500 35024G36KT P6SM OVC020
     FM031900 36017G25KT P6SM BKN035=



000
FTUS43 KGLD 030502 AAA
TAFMCK
TAF AMD
KMCK 030502Z 0305/0324 12008KT P6SM OVC015
     FM030900 VRB05KT P6SM OVC020
     FM031200 31012KT P6SM BKN035
     FM031500 35024G36KT P6SM OVC020
     FM031900 36017G25KT P6SM BKN035=



000
FTUS43 KGLD 030502 AAB
TAFGLD
TAF AMD
KGLD 030502Z 0305/0324 19020G28KT 6SM BR OVC006 WS020/22055KT
      TEMPO 0305/0308 SCT006 BKN015
     FM030900 26015G24KT P6SM BKN015
     FM031200 31019G26KT P6SM BKN030
     FM031500 36020G28KT P6SM BKN015
     FM031900 01015G22KT P6SM BKN035=



000
FTUS43 KGLD 030246 AAA
TAFGLD
TAF AMD
KGLD 030246Z 0303/0324 17022G32KT 5SM BR OVC005
     FM030500 19021G29KT 6SM BR BKN015 OVC200 WS020/22055KT
      TEMPO 0305/0308 OVC005
     FM031000 27019G26KT P6SM BKN035
     FM031300 31018G25KT P6SM BKN030
     FM031600 35020G28KT P6SM BKN015
     FM031900 01015G22KT P6SM SCT030 BKN100=



000
FTUS43 KGLD 030246 AAA
TAFGLD
TAF AMD
KGLD 030246Z 0303/0324 17022G32KT 5SM BR OVC005
     FM030500 19021G29KT 6SM BR BKN015 OVC200 WS020/22055KT
      TEMPO 0305/0308 OVC005
     FM031000 27019G26KT P6SM BKN035
     FM031300 31018G25KT P6SM BKN030
     FM031600 35020G28KT P6SM BKN015
     FM031900 01015G22KT P6SM SCT030 BKN100=



000
FTUS43 KGLD 022329
TAFMCK
TAF
KMCK 022329Z 0300/0324 16015G23KT 6SM -DZ BR OVC015
     FM030500 15010KT 6SM BR OVC008
     FM030900 26010KT P6SM SCT020 OVC200
     FM031200 32019G27KT P6SM BKN020
     FM031500 35025G33KT P6SM OVC030
     FM032000 36017G25KT P6SM SCT025 BKN120=



000
FTUS43 KGLD 022329
TAFMCK
TAF
KMCK 022329Z 0300/0324 16015G23KT 6SM -DZ BR OVC015
     FM030500 15010KT 6SM BR OVC008
     FM030900 26010KT P6SM SCT020 OVC200
     FM031200 32019G27KT P6SM BKN020
     FM031500 35025G33KT P6SM OVC030
     FM032000 36017G25KT P6SM SCT025 BKN120=



000
FTUS43 KGLD 022329
TAFGLD
TAF
KGLD 022329Z 0300/0324 17020G30KT 3SM BR OVC006
      TEMPO 0301/0305 1/2SM FG
     FM030500 19021G29KT 5SM BR BKN015 OVC200 WS020/22055KT
      TEMPO 0305/0308 1SM BR OVC006
     FM031000 27019G26KT P6SM BKN035
     FM031300 31018G25KT P6SM BKN030
     FM031600 35020G28KT P6SM BKN015
     FM031900 01015G22KT P6SM SCT030 BKN100=



000
FTUS43 KGLD 022302 AAB
TAFGLD
TAF AMD
KGLD 022302Z 0223/0318 17020G30KT 3SM BR OVC006
      TEMPO 0301/0305 1/2SM FG
     FM030500 19021G29KT 5SM BR BKN015 OVC200 WS020/22055KT
      TEMPO 0305/0308 1SM BR OVC006
     FM031000 27019G26KT P6SM BKN035
     FM031300 31018G25KT P6SM BKN030
     FM031600 35020G28KT P6SM BKN015=



000
FTUS43 KGLD 022302 AAB
TAFGLD
TAF AMD
KGLD 022302Z 0223/0318 17020G30KT 3SM BR OVC006
      TEMPO 0301/0305 1/2SM FG
     FM030500 19021G29KT 5SM BR BKN015 OVC200 WS020/22055KT
      TEMPO 0305/0308 1SM BR OVC006
     FM031000 27019G26KT P6SM BKN035
     FM031300 31018G25KT P6SM BKN030
     FM031600 35020G28KT P6SM BKN015=



000
FTUS43 KGLD 022157 AAA
TAFGLD
TAF AMD
KGLD 022157Z 0222/0318 18022G30KT P6SM OVC008
     FM030500 20021G29KT P6SM BKN020 OVC200 WS020/22055KT
     FM031100 27019G26KT P6SM BKN070
     FM031300 30018G25KT P6SM BKN045
     FM031600 35020G28KT P6SM BKN015=



000
FTUS43 KGLD 022157 AAA
TAFGLD
TAF AMD
KGLD 022157Z 0222/0318 18022G30KT P6SM OVC008
     FM030500 20021G29KT P6SM BKN020 OVC200 WS020/22055KT
     FM031100 27019G26KT P6SM BKN070
     FM031300 30018G25KT P6SM BKN045
     FM031600 35020G28KT P6SM BKN015=



000
FTUS43 KGLD 021725
TAFGLD
TAF
KGLD 021725Z 0218/0318 18022G30KT P6SM OVC015
     FM030600 20021G29KT P6SM FEW020 BKN200 WS020/22055KT
     FM031100 27019G26KT P6SM BKN070
     FM031300 30018G25KT P6SM BKN045
     FM031600 35020G28KT P6SM BKN015=



000
FTUS43 KGLD 021725
TAFMCK
TAF
KMCK 021725Z 0218/0318 17018G27KT P6SM BKN050
     FM022200 16014G22KT P6SM OVC015
     FM030800 22010KT P6SM SCT020 OVC200
     FM031200 32019G27KT P6SM BKN020
     FM031500 34025G33KT P6SM OVC025=



000
FTUS43 KGLD 021725
TAFMCK
TAF
KMCK 021725Z 0218/0318 17018G27KT P6SM BKN050
     FM022200 16014G22KT P6SM OVC015
     FM030800 22010KT P6SM SCT020 OVC200
     FM031200 32019G27KT P6SM BKN020
     FM031500 34025G33KT P6SM OVC025=



000
FTUS43 KGLD 021725
TAFMCK
TAF
KMCK 021725Z 0218/0318 17018G27KT P6SM BKN050
     FM022200 16014G22KT P6SM OVC015
     FM030800 22010KT P6SM SCT020 OVC200
     FM031200 32019G27KT P6SM BKN020
     FM031500 34025G33KT P6SM OVC025=



000
FTUS43 KGLD 021725
TAFGLD
TAF
KGLD 021725Z 0218/0318 18022G30KT P6SM OVC015
     FM030600 20021G29KT P6SM FEW020 BKN200 WS020/22055KT
     FM031100 27019G26KT P6SM BKN070
     FM031300 30018G25KT P6SM BKN045
     FM031600 35020G28KT P6SM BKN015=



000
FTUS43 KGLD 021725
TAFMCK
TAF
KMCK 021725Z 0218/0318 17018G27KT P6SM BKN050
     FM022200 16014G22KT P6SM OVC015
     FM030800 22010KT P6SM SCT020 OVC200
     FM031200 32019G27KT P6SM BKN020
     FM031500 34025G33KT P6SM OVC025=



000
FTUS43 KGLD 021519 AAC
TAFGLD
TAF AMD
KGLD 021519Z 0215/0312 17014KT 6SM BR BKN008
     FM021600 17015G25KT P6SM BKN010
     FM021800 18023G35KT P6SM BKN020
     FM030200 19020G30KT P6SM BKN035=



000
FTUS43 KGLD 021335 AAB
TAFGLD
TAF AMD
KGLD 021335Z 0214/0312 16006KT P6SM SCT006 BKN015
      TEMPO 0214/0216 5SM BR BKN006
     FM021600 17015G25KT P6SM BKN025
     FM021800 18023G35KT P6SM BKN020
     FM030200 19020G30KT P6SM BKN035=



000
FTUS43 KGLD 021321 AAA
TAFGLD
TAF AMD
KGLD 021321Z 0213/0312 18006KT P6SM SCT006 BKN120
      TEMPO 0213/0215 BKN006
     FM021500 17015G25KT P6SM BKN025
     FM021800 18023G35KT P6SM BKN020
     FM030200 19020G30KT P6SM BKN035=



000
FTUS43 KGLD 021321 AAA
TAFGLD
TAF AMD
KGLD 021321Z 0213/0312 18006KT P6SM SCT006 BKN120
      TEMPO 0213/0215 BKN006
     FM021500 17015G25KT P6SM BKN025
     FM021800 18023G35KT P6SM BKN020
     FM030200 19020G30KT P6SM BKN035=



000
FTUS43 KGLD 021122
TAFGLD
TAF
KGLD 021122Z 0212/0312 18006KT P6SM BKN120
     FM021500 17015G25KT P6SM BKN025
     FM021800 18023G35KT P6SM BKN020
     FM030200 19020G30KT P6SM BKN035=



000
FTUS43 KGLD 021122
TAFMCK
TAF
KMCK 021122Z 0212/0312 15006KT P6SM BKN070
     FM021600 17015G25KT P6SM BKN060
     FM021800 17020G30KT P6SM BKN035
     FM030200 16012KT P6SM BKN035=



000
FTUS43 KGLD 021122
TAFGLD
TAF
KGLD 021122Z 0212/0312 18006KT P6SM BKN120
     FM021500 17015G25KT P6SM BKN025
     FM021800 18023G35KT P6SM BKN020
     FM030200 19020G30KT P6SM BKN035=



000
FTUS43 KGLD 021122
TAFMCK
TAF
KMCK 021122Z 0212/0312 15006KT P6SM BKN070
     FM021600 17015G25KT P6SM BKN060
     FM021800 17020G30KT P6SM BKN035
     FM030200 16012KT P6SM BKN035=



000
FTUS43 KGLD 021122
TAFMCK
TAF
KMCK 021122Z 0212/0312 15006KT P6SM BKN070
     FM021600 17015G25KT P6SM BKN060
     FM021800 17020G30KT P6SM BKN035
     FM030200 16012KT P6SM BKN035=



000
FTUS43 KGLD 021122
TAFMCK
TAF
KMCK 021122Z 0212/0312 15006KT P6SM BKN070
     FM021600 17015G25KT P6SM BKN060
     FM021800 17020G30KT P6SM BKN035
     FM030200 16012KT P6SM BKN035=



000
FTUS43 KGLD 020539
TAFMCK
TAF
KMCK 020539Z 0206/0306 17006KT P6SM BKN080
     FM021500 16013G21KT P6SM SCT060 BKN120
     FM021800 17022G33KT P6SM SCT200
     FM030100 16013KT P6SM BKN150=



000
FTUS43 KGLD 020539
TAFMCK
TAF
KMCK 020539Z 0206/0306 17006KT P6SM BKN080
     FM021500 16013G21KT P6SM SCT060 BKN120
     FM021800 17022G33KT P6SM SCT200
     FM030100 16013KT P6SM BKN150=



000
FTUS43 KGLD 020539
TAFGLD
TAF
KGLD 020539Z 0206/0306 18006KT P6SM VCSH BKN050
     FM021000 17013KT P6SM SCT015 BKN040
     FM021500 17017G25KT P6SM SCT015 BKN035
     FM021800 18026G39KT P6SM BKN200
     FM030000 19019G26KT P6SM BKN150=



000
FTUS43 KGLD 020539
TAFGLD
TAF
KGLD 020539Z 0206/0306 18006KT P6SM VCSH BKN050
     FM021000 17013KT P6SM SCT015 BKN040
     FM021500 17017G25KT P6SM SCT015 BKN035
     FM021800 18026G39KT P6SM BKN200
     FM030000 19019G26KT P6SM BKN150=



000
FTUS43 KGLD 020539
TAFMCK
TAF
KMCK 020539Z 0206/0306 17006KT P6SM BKN080
     FM021500 16013G21KT P6SM SCT060 BKN120
     FM021800 17022G33KT P6SM SCT200
     FM030100 16013KT P6SM BKN150=



000
FTUS43 KGLD 020539
TAFMCK
TAF
KMCK 020539Z 0206/0306 17006KT P6SM BKN080
     FM021500 16013G21KT P6SM SCT060 BKN120
     FM021800 17022G33KT P6SM SCT200
     FM030100 16013KT P6SM BKN150=



    US Dept of Commerce
    National Oceanic and Atmospheric Administration
    National Weather Service
    1325 East West Highway
    Silver Spring, MD 20910
    Page Author: NWS Internet Services Team
Disclaimer
Information Quality
Credits
Glossary
Privacy Policy
Freedom of Information Act (FOIA)
About Us
Career Opportunities